Ann Arbor, MI

23:48 EDT le 31 octobre 2014 (GMT -0400)
Walker Briar Works | Change Station
CLOSE
Current Station
Stations météorologiques personnelles
Location: Ann Arbor, MI
Altitude: 961 ft
Stations météo à proximité

Alt. 961 ft 42.26 °N, 83.77 °W | Updated 8 minutes ago

Couvert
Couvert
32.9 ° F
Paraît 33 ° F
N
1.6
Vent Variable Vent de Ouest
Gusts 11.4 mph

Aujourd'hui
Haut(e) -- | Bas -- ° F
--% Risque de précip.
Hier
Haut(e) -- | Bas -- ° F
Precip. -- pouce
8:07 AM 6:29 PM
Lune gibbeuse croissante, 62% visible
Pression 30.12 pouce
Visibilité 7.0 Miles terrestres
Nuages Couvert 1500 ft
Refroidissement éolien 33 ° F
Point de rosée 32 ° F
Humidité 96%
Précipitations 0.07 pouce
Profondeur de la couche neigeuse Non disponible.
UV 0 sur 12
Pollen .10 sur 12
Qualité de l'air Non disponible.
Flu Activity Non disponible.
METAR KARB 010253Z AUTO 36016G27KT 7SM OVC015 01/M02 A3009 RMK AO2 PK WND 36027/0247 SNE37 SLP198 P0000 60000 T00111017 51009

More Conditions Fewer Conditions

Pression 30.12 pouce
Visibilité 7.0 Miles terrestres
Nuages Couvert 1500 ft
Refroidissement éolien 33 ° F
Point de rosée 32 ° F
Humidité 96%
Précipitations 0.07 pouce
Profondeur de la couche neigeuse Non disponible.
UV 0 sur 12
Pollen .10 sur 12
Qualité de l'air Non disponible.
Flu Activity Non disponible.
METAR KARB 010253Z AUTO 36016G27KT 7SM OVC015 01/M02 A3009 RMK AO2 PK WND 36027/0247 SNE37 SLP198 P0000 60000 T00111017 51009

More Conditions Fewer Conditions

10-Day Weather Forecast

Almanac

Astronomie

Oct. 31, 2014 Lever Coucher
Temps réel
Crépuscule civil
Crépuscule nautique
Crépuscule astronomique
Lune
Durée de lumière visible
Longueur du jour
Tomorrow will be .
, % of the Moon is Illuminated

Extrêmes aujourd'hui

State Highs State Lows

Community

WunderPhotos

Upload Photos

1,766,847 Photos téléchargées !

WunderBlogs® & News

Nearby

Qualité de l'air

  Qualité de l'air Indice de la qualité de l'air Polluant
Not available.

Épaisseur de neige

Station Depth Altitude

Activité sismique

Ville Distance Mag. Time & Date
Minimum magnitude displayed is 2.5.

Températures des eaux côtières

Lieu Température

Stations météo à proximité